sensor_id;sensor_type;location;lat;lon;timestamp;P1;durP1;ratioP1;P2;durP2;ratioP2
2474;SDS011;1248;48.694;10.160;2024-02-16T00:01:01;12.40;;;7.27;;
2474;SDS011;1248;48.694;10.160;2024-02-16T00:03:28;9.37;;;7.00;;
2474;SDS011;1248;48.694;10.160;2024-02-16T00:05:55;13.97;;;7.60;;
2474;SDS011;1248;48.694;10.160;2024-02-16T00:08:22;14.37;;;8.37;;
2474;SDS011;1248;48.694;10.160;2024-02-16T00:10:50;11.20;;;8.43;;
2474;SDS011;1248;48.694;10.160;2024-02-16T00:13:17;12.97;;;8.30;;
2474;SDS011;1248;48.694;10.160;2024-02-16T00:15:45;9.17;;;7.60;;
2474;SDS011;1248;48.694;10.160;2024-02-16T00:18:13;11.90;;;8.23;;
2474;SDS011;1248;48.694;10.160;2024-02-16T00:20:40;11.03;;;7.60;;
2474;SDS011;1248;48.694;10.160;2024-02-16T00:23:07;10.43;;;8.03;;
2474;SDS011;1248;48.694;10.160;2024-02-16T00:25:35;13.17;;;7.70;;
2474;SDS011;1248;48.694;10.160;2024-02-16T00:28:02;11.93;;;7.83;;
2474;SDS011;1248;48.694;10.160;2024-02-16T00:30:29;8.50;;;7.60;;
2474;SDS011;1248;48.694;10.160;2024-02-16T00:32:56;11.40;;;7.83;;
2474;SDS011;1248;48.694;10.160;2024-02-16T00:35:24;10.87;;;7.50;;
2474;SDS011;1248;48.694;10.160;2024-02-16T00:37:51;14.90;;;7.70;;
2474;SDS011;1248;48.694;10.160;2024-02-16T00:40:18;11.67;;;7.90;;
2474;SDS011;1248;48.694;10.160;2024-02-16T00:42:45;12.97;;;8.97;;
2474;SDS011;1248;48.694;10.160;2024-02-16T00:45:12;10.83;;;8.00;;
2474;SDS011;1248;48.694;10.160;2024-02-16T00:47:39;10.20;;;7.00;;
2474;SDS011;1248;48.694;10.160;2024-02-16T00:50:07;12.60;;;7.97;;
2474;SDS011;1248;48.694;10.160;2024-02-16T00:52:36;9.10;;;6.80;;
2474;SDS011;1248;48.694;10.160;2024-02-16T00:55:04;12.10;;;7.67;;
2474;SDS011;1248;48.694;10.160;2024-02-16T00:57:32;8.83;;;7.63;;
2474;SDS011;1248;48.694;10.160;2024-02-16T01:00:00;9.13;;;7.13;;
2474;SDS011;1248;48.694;10.160;2024-02-16T01:02:28;7.97;;;7.13;;
2474;SDS011;1248;48.694;10.160;2024-02-16T01:04:57;11.10;;;7.80;;
2474;SDS011;1248;48.694;10.160;2024-02-16T01:07:27;8.80;;;7.47;;
2474;SDS011;1248;48.694;10.160;2024-02-16T01:09:56;12.30;;;7.53;;
2474;SDS011;1248;48.694;10.160;2024-02-16T01:12:23;9.30;;;8.33;;
2474;SDS011;1248;48.694;10.160;2024-02-16T01:14:50;13.63;;;7.90;;
2474;SDS011;1248;48.694;10.160;2024-02-16T01:17:17;10.23;;;7.80;;
2474;SDS011;1248;48.694;10.160;2024-02-16T01:19:44;7.60;;;6.80;;
2474;SDS011;1248;48.694;10.160;2024-02-16T01:22:12;6.73;;;6.00;;
2474;SDS011;1248;48.694;10.160;2024-02-16T01:24:41;11.20;;;6.90;;
2474;SDS011;1248;48.694;10.160;2024-02-16T01:27:09;10.63;;;7.13;;
2474;SDS011;1248;48.694;10.160;2024-02-16T01:29:37;10.70;;;6.90;;
2474;SDS011;1248;48.694;10.160;2024-02-16T01:32:04;10.00;;;6.90;;
2474;SDS011;1248;48.694;10.160;2024-02-16T01:34:31;11.43;;;7.43;;
2474;SDS011;1248;48.694;10.160;2024-02-16T01:36:58;8.63;;;6.53;;
2474;SDS011;1248;48.694;10.160;2024-02-16T01:39:25;14.27;;;7.53;;
2474;SDS011;1248;48.694;10.160;2024-02-16T01:41:52;9.50;;;7.00;;
2474;SDS011;1248;48.694;10.160;2024-02-16T01:44:21;10.90;;;7.10;;
2474;SDS011;1248;48.694;10.160;2024-02-16T01:46:48;13.90;;;7.17;;
2474;SDS011;1248;48.694;10.160;2024-02-16T01:49:15;10.53;;;6.90;;
2474;SDS011;1248;48.694;10.160;2024-02-16T01:51:42;9.37;;;6.53;;
2474;SDS011;1248;48.694;10.160;2024-02-16T01:54:10;11.93;;;7.70;;
2474;SDS011;1248;48.694;10.160;2024-02-16T01:56:37;9.97;;;6.70;;
2474;SDS011;1248;48.694;10.160;2024-02-16T01:59:04;11.97;;;7.77;;
2474;SDS011;1248;48.694;10.160;2024-02-16T02:01:32;8.63;;;6.80;;
2474;SDS011;1248;48.694;10.160;2024-02-16T02:03:59;9.43;;;6.10;;
2474;SDS011;1248;48.694;10.160;2024-02-16T02:06:27;7.63;;;5.93;;
2474;SDS011;1248;48.694;10.160;2024-02-16T02:08:54;12.23;;;6.50;;
2474;SDS011;1248;48.694;10.160;2024-02-16T02:11:21;7.60;;;6.20;;
2474;SDS011;1248;48.694;10.160;2024-02-16T02:13:48;10.57;;;6.63;;
2474;SDS011;1248;48.694;10.160;2024-02-16T02:16:15;11.03;;;6.60;;
2474;SDS011;1248;48.694;10.160;2024-02-16T02:18:44;10.13;;;6.30;;
2474;SDS011;1248;48.694;10.160;2024-02-16T02:21:11;9.43;;;6.17;;
2474;SDS011;1248;48.694;10.160;2024-02-16T02:23:41;12.10;;;6.73;;
2474;SDS011;1248;48.694;10.160;2024-02-16T02:26:08;10.37;;;6.47;;
2474;SDS011;1248;48.694;10.160;2024-02-16T02:28:35;7.17;;;5.33;;
2474;SDS011;1248;48.694;10.160;2024-02-16T02:31:02;6.17;;;5.47;;
2474;SDS011;1248;48.694;10.160;2024-02-16T02:33:29;6.63;;;6.00;;
2474;SDS011;1248;48.694;10.160;2024-02-16T02:35:57;8.40;;;5.80;;
2474;SDS011;1248;48.694;10.160;2024-02-16T02:38:24;10.00;;;6.20;;
2474;SDS011;1248;48.694;10.160;2024-02-16T02:40:53;7.87;;;6.47;;
2474;SDS011;1248;48.694;10.160;2024-02-16T02:43:20;8.33;;;5.90;;
2474;SDS011;1248;48.694;10.160;2024-02-16T02:45:48;8.70;;;5.93;;
2474;SDS011;1248;48.694;10.160;2024-02-16T02:48:15;7.90;;;5.17;;
2474;SDS011;1248;48.694;10.160;2024-02-16T02:50:43;9.83;;;6.30;;
2474;SDS011;1248;48.694;10.160;2024-02-16T02:53:10;6.37;;;5.30;;
2474;SDS011;1248;48.694;10.160;2024-02-16T02:55:37;8.53;;;6.13;;
2474;SDS011;1248;48.694;10.160;2024-02-16T02:58:06;8.50;;;5.50;;
2474;SDS011;1248;48.694;10.160;2024-02-16T03:00:33;6.67;;;5.20;;
2474;SDS011;1248;48.694;10.160;2024-02-16T03:03:00;9.80;;;6.60;;
2474;SDS011;1248;48.694;10.160;2024-02-16T03:05:28;7.87;;;5.60;;
2474;SDS011;1248;48.694;10.160;2024-02-16T03:07:55;9.83;;;5.77;;
2474;SDS011;1248;48.694;10.160;2024-02-16T03:10:24;6.90;;;5.47;;
2474;SDS011;1248;48.694;10.160;2024-02-16T03:12:51;6.57;;;5.40;;
2474;SDS011;1248;48.694;10.160;2024-02-16T03:15:21;6.33;;;4.80;;
2474;SDS011;1248;48.694;10.160;2024-02-16T03:17:48;8.17;;;6.00;;
2474;SDS011;1248;48.694;10.160;2024-02-16T03:20:15;6.23;;;5.43;;
2474;SDS011;1248;48.694;10.160;2024-02-16T03:22:42;9.63;;;5.77;;
2474;SDS011;1248;48.694;10.160;2024-02-16T03:25:09;9.03;;;5.33;;
2474;SDS011;1248;48.694;10.160;2024-02-16T03:27:36;7.17;;;5.20;;
2474;SDS011;1248;48.694;10.160;2024-02-16T03:30:04;9.73;;;5.30;;
2474;SDS011;1248;48.694;10.160;2024-02-16T03:32:33;6.10;;;5.07;;
2474;SDS011;1248;48.694;10.160;2024-02-16T03:35:00;8.73;;;5.80;;
2474;SDS011;1248;48.694;10.160;2024-02-16T03:37:27;8.13;;;5.60;;
2474;SDS011;1248;48.694;10.160;2024-02-16T03:39:55;14.10;;;7.07;;
2474;SDS011;1248;48.694;10.160;2024-02-16T03:42:22;17.87;;;7.03;;
2474;SDS011;1248;48.694;10.160;2024-02-16T03:44:49;15.87;;;7.00;;
2474;SDS011;1248;48.694;10.160;2024-02-16T03:47:16;6.07;;;5.47;;
2474;SDS011;1248;48.694;10.160;2024-02-16T03:49:45;6.20;;;5.20;;
2474;SDS011;1248;48.694;10.160;2024-02-16T03:52:12;6.63;;;6.03;;
2474;SDS011;1248;48.694;10.160;2024-02-16T03:54:39;5.93;;;5.33;;
2474;SDS011;1248;48.694;10.160;2024-02-16T03:57:07;13.47;;;5.90;;
2474;SDS011;1248;48.694;10.160;2024-02-16T03:59:37;6.90;;;5.63;;
2474;SDS011;1248;48.694;10.160;2024-02-16T04:02:05;12.07;;;7.87;;
2474;SDS011;1248;48.694;10.160;2024-02-16T04:04:32;10.40;;;5.90;;
2474;SDS011;1248;48.694;10.160;2024-02-16T04:07:01;8.80;;;6.23;;
2474;SDS011;1248;48.694;10.160;2024-02-16T04:09:28;9.87;;;6.63;;
2474;SDS011;1248;48.694;10.160;2024-02-16T04:11:55;9.87;;;5.80;;
2474;SDS011;1248;48.694;10.160;2024-02-16T04:14:22;7.37;;;5.67;;
2474;SDS011;1248;48.694;10.160;2024-02-16T04:16:49;10.60;;;5.63;;
2474;SDS011;1248;48.694;10.160;2024-02-16T04:19:16;5.63;;;5.10;;
2474;SDS011;1248;48.694;10.160;2024-02-16T04:21:43;8.10;;;5.60;;
2474;SDS011;1248;48.694;10.160;2024-02-16T04:24:11;8.93;;;6.13;;
2474;SDS011;1248;48.694;10.160;2024-02-16T04:26:38;9.83;;;6.77;;
2474;SDS011;1248;48.694;10.160;2024-02-16T04:29:05;9.40;;;6.90;;
2474;SDS011;1248;48.694;10.160;2024-02-16T04:31:32;11.17;;;6.13;;
2474;SDS011;1248;48.694;10.160;2024-02-16T04:33:59;9.20;;;6.07;;
2474;SDS011;1248;48.694;10.160;2024-02-16T04:36:27;10.50;;;7.20;;
2474;SDS011;1248;48.694;10.160;2024-02-16T04:38:54;7.20;;;6.27;;
2474;SDS011;1248;48.694;10.160;2024-02-16T04:41:22;7.57;;;6.73;;
2474;SDS011;1248;48.694;10.160;2024-02-16T04:43:49;10.00;;;6.80;;
2474;SDS011;1248;48.694;10.160;2024-02-16T04:46:16;9.90;;;6.80;;
2474;SDS011;1248;48.694;10.160;2024-02-16T04:48:44;12.93;;;6.87;;
2474;SDS011;1248;48.694;10.160;2024-02-16T04:51:11;9.33;;;7.73;;
2474;SDS011;1248;48.694;10.160;2024-02-16T04:53:38;13.47;;;7.07;;
2474;SDS011;1248;48.694;10.160;2024-02-16T04:56:05;10.40;;;7.23;;
2474;SDS011;1248;48.694;10.160;2024-02-16T04:58:34;8.77;;;6.63;;
2474;SDS011;1248;48.694;10.160;2024-02-16T05:01:01;12.43;;;7.40;;
2474;SDS011;1248;48.694;10.160;2024-02-16T05:03:28;10.80;;;7.50;;
2474;SDS011;1248;48.694;10.160;2024-02-16T05:05:55;11.20;;;7.80;;
2474;SDS011;1248;48.694;10.160;2024-02-16T05:08:22;11.73;;;7.80;;
2474;SDS011;1248;48.694;10.160;2024-02-16T05:10:49;8.53;;;6.87;;
2474;SDS011;1248;48.694;10.160;2024-02-16T05:13:16;8.13;;;6.30;;
2474;SDS011;1248;48.694;10.160;2024-02-16T05:15:45;6.83;;;6.23;;
2474;SDS011;1248;48.694;10.160;2024-02-16T05:18:14;9.03;;;5.90;;
2474;SDS011;1248;48.694;10.160;2024-02-16T05:20:43;9.47;;;6.07;;
2474;SDS011;1248;48.694;10.160;2024-02-16T05:23:10;6.20;;;5.60;;
2474;SDS011;1248;48.694;10.160;2024-02-16T05:25:37;6.80;;;6.10;;
2474;SDS011;1248;48.694;10.160;2024-02-16T05:28:04;11.30;;;6.37;;
2474;SDS011;1248;48.694;10.160;2024-02-16T05:30:31;9.73;;;6.63;;
2474;SDS011;1248;48.694;10.160;2024-02-16T05:33:00;11.70;;;7.20;;
2474;SDS011;1248;48.694;10.160;2024-02-16T05:35:28;10.93;;;7.27;;
2474;SDS011;1248;48.694;10.160;2024-02-16T05:37:59;7.90;;;7.17;;
2474;SDS011;1248;48.694;10.160;2024-02-16T05:40:32;8.50;;;6.83;;
2474;SDS011;1248;48.694;10.160;2024-02-16T05:43:10;9.10;;;7.63;;
2474;SDS011;1248;48.694;10.160;2024-02-16T05:45:38;10.10;;;6.83;;
2474;SDS011;1248;48.694;10.160;2024-02-16T05:48:08;11.70;;;7.40;;
2474;SDS011;1248;48.694;10.160;2024-02-16T05:50:36;12.77;;;8.00;;
2474;SDS011;1248;48.694;10.160;2024-02-16T05:53:03;11.87;;;8.07;;
2474;SDS011;1248;48.694;10.160;2024-02-16T05:55:30;8.73;;;7.93;;
2474;SDS011;1248;48.694;10.160;2024-02-16T05:57:57;13.63;;;7.93;;
2474;SDS011;1248;48.694;10.160;2024-02-16T06:00:24;9.60;;;7.47;;
2474;SDS011;1248;48.694;10.160;2024-02-16T06:02:53;10.83;;;6.30;;
2474;SDS011;1248;48.694;10.160;2024-02-16T06:05:21;11.00;;;6.67;;
2474;SDS011;1248;48.694;10.160;2024-02-16T06:07:48;12.87;;;8.57;;
2474;SDS011;1248;48.694;10.160;2024-02-16T06:10:15;18.97;;;7.23;;
2474;SDS011;1248;48.694;10.160;2024-02-16T06:12:43;10.27;;;7.73;;
2474;SDS011;1248;48.694;10.160;2024-02-16T06:15:10;13.53;;;8.67;;
2474;SDS011;1248;48.694;10.160;2024-02-16T06:17:37;11.10;;;7.20;;
2474;SDS011;1248;48.694;10.160;2024-02-16T06:20:06;10.57;;;7.07;;
2474;SDS011;1248;48.694;10.160;2024-02-16T06:22:36;9.20;;;7.67;;
2474;SDS011;1248;48.694;10.160;2024-02-16T06:25:03;15.63;;;7.17;;
2474;SDS011;1248;48.694;10.160;2024-02-16T06:27:31;8.90;;;8.00;;
2474;SDS011;1248;48.694;10.160;2024-02-16T06:29:58;8.93;;;7.27;;
2474;SDS011;1248;48.694;10.160;2024-02-16T06:32:25;11.90;;;8.40;;
2474;SDS011;1248;48.694;10.160;2024-02-16T06:34:52;10.07;;;7.17;;
2474;SDS011;1248;48.694;10.160;2024-02-16T06:37:19;9.80;;;7.27;;
2474;SDS011;1248;48.694;10.160;2024-02-16T06:39:47;11.30;;;7.53;;
2474;SDS011;1248;48.694;10.160;2024-02-16T06:42:14;15.50;;;8.43;;
2474;SDS011;1248;48.694;10.160;2024-02-16T06:44:41;11.77;;;6.77;;
2474;SDS011;1248;48.694;10.160;2024-02-16T06:47:08;9.73;;;7.53;;
2474;SDS011;1248;48.694;10.160;2024-02-16T06:49:35;12.40;;;10.40;;
2474;SDS011;1248;48.694;10.160;2024-02-16T06:52:03;11.10;;;7.23;;
2474;SDS011;1248;48.694;10.160;2024-02-16T06:54:31;10.17;;;7.30;;
2474;SDS011;1248;48.694;10.160;2024-02-16T06:56:59;10.70;;;8.33;;
2474;SDS011;1248;48.694;10.160;2024-02-16T06:59:26;15.23;;;8.70;;
2474;SDS011;1248;48.694;10.160;2024-02-16T07:01:53;11.60;;;8.13;;
2474;SDS011;1248;48.694;10.160;2024-02-16T07:04:20;11.73;;;8.00;;
2474;SDS011;1248;48.694;10.160;2024-02-16T07:06:48;10.80;;;8.03;;
2474;SDS011;1248;48.694;10.160;2024-02-16T07:09:15;10.00;;;6.90;;
2474;SDS011;1248;48.694;10.160;2024-02-16T07:11:42;11.27;;;7.40;;
2474;SDS011;1248;48.694;10.160;2024-02-16T07:14:13;10.27;;;7.50;;
2474;SDS011;1248;48.694;10.160;2024-02-16T07:16:40;10.47;;;7.17;;
2474;SDS011;1248;48.694;10.160;2024-02-16T07:19:07;7.03;;;6.33;;
2474;SDS011;1248;48.694;10.160;2024-02-16T07:21:34;10.50;;;8.67;;
2474;SDS011;1248;48.694;10.160;2024-02-16T07:24:01;11.50;;;7.20;;
2474;SDS011;1248;48.694;10.160;2024-02-16T07:26:29;10.03;;;7.70;;
2474;SDS011;1248;48.694;10.160;2024-02-16T07:28:56;12.97;;;7.73;;
2474;SDS011;1248;48.694;10.160;2024-02-16T07:31:24;14.13;;;8.27;;
2474;SDS011;1248;48.694;10.160;2024-02-16T07:33:51;13.93;;;8.60;;
2474;SDS011;1248;48.694;10.160;2024-02-16T07:36:18;14.57;;;8.90;;
2474;SDS011;1248;48.694;10.160;2024-02-16T07:38:45;10.60;;;7.83;;
2474;SDS011;1248;48.694;10.160;2024-02-16T07:41:12;14.63;;;9.03;;
2474;SDS011;1248;48.694;10.160;2024-02-16T07:43:39;15.50;;;9.73;;
2474;SDS011;1248;48.694;10.160;2024-02-16T07:46:06;10.00;;;8.13;;
2474;SDS011;1248;48.694;10.160;2024-02-16T07:48:35;13.27;;;8.50;;
2474;SDS011;1248;48.694;10.160;2024-02-16T07:51:02;14.53;;;8.07;;
2474;SDS011;1248;48.694;10.160;2024-02-16T07:53:30;11.57;;;9.70;;
2474;SDS011;1248;48.694;10.160;2024-02-16T07:55:59;9.73;;;7.90;;
2474;SDS011;1248;48.694;10.160;2024-02-16T07:58:26;10.13;;;7.93;;
2474;SDS011;1248;48.694;10.160;2024-02-16T08:00:53;10.37;;;8.00;;
2474;SDS011;1248;48.694;10.160;2024-02-16T08:03:21;12.73;;;7.93;;
2474;SDS011;1248;48.694;10.160;2024-02-16T08:05:49;15.63;;;8.87;;
2474;SDS011;1248;48.694;10.160;2024-02-16T08:08:16;11.03;;;9.10;;
2474;SDS011;1248;48.694;10.160;2024-02-16T08:10:43;15.00;;;8.93;;
2474;SDS011;1248;48.694;10.160;2024-02-16T08:13:10;12.43;;;8.57;;
2474;SDS011;1248;48.694;10.160;2024-02-16T08:15:37;12.33;;;8.93;;
2474;SDS011;1248;48.694;10.160;2024-02-16T08:18:04;15.53;;;9.27;;
2474;SDS011;1248;48.694;10.160;2024-02-16T08:20:32;14.67;;;9.20;;
2474;SDS011;1248;48.694;10.160;2024-02-16T08:23:00;12.60;;;9.07;;
2474;SDS011;1248;48.694;10.160;2024-02-16T08:25:27;12.97;;;10.67;;
2474;SDS011;1248;48.694;10.160;2024-02-16T08:27:55;18.10;;;9.67;;
2474;SDS011;1248;48.694;10.160;2024-02-16T08:30:25;12.13;;;10.20;;
2474;SDS011;1248;48.694;10.160;2024-02-16T08:32:53;11.73;;;8.60;;
2474;SDS011;1248;48.694;10.160;2024-02-16T08:35:27;15.90;;;9.80;;
2474;SDS011;1248;48.694;10.160;2024-02-16T08:37:55;17.20;;;11.73;;
2474;SDS011;1248;48.694;10.160;2024-02-16T08:40:23;12.33;;;9.33;;
2474;SDS011;1248;48.694;10.160;2024-02-16T08:42:51;15.40;;;11.20;;
2474;SDS011;1248;48.694;10.160;2024-02-16T08:45:18;15.57;;;10.30;;
2474;SDS011;1248;48.694;10.160;2024-02-16T08:47:45;15.57;;;10.20;;
2474;SDS011;1248;48.694;10.160;2024-02-16T08:50:12;17.40;;;10.40;;
2474;SDS011;1248;48.694;10.160;2024-02-16T08:52:39;16.40;;;10.00;;
2474;SDS011;1248;48.694;10.160;2024-02-16T08:55:07;13.70;;;9.50;;
2474;SDS011;1248;48.694;10.160;2024-02-16T08:57:36;14.97;;;11.07;;
2474;SDS011;1248;48.694;10.160;2024-02-16T09:00:03;14.97;;;11.40;;
2474;SDS011;1248;48.694;10.160;2024-02-16T09:02:31;17.60;;;11.33;;
2474;SDS011;1248;48.694;10.160;2024-02-16T09:04:58;13.23;;;10.90;;
2474;SDS011;1248;48.694;10.160;2024-02-16T09:07:25;14.17;;;10.80;;
2474;SDS011;1248;48.694;10.160;2024-02-16T09:09:52;16.00;;;10.27;;
2474;SDS011;1248;48.694;10.160;2024-02-16T09:12:21;16.50;;;10.90;;
2474;SDS011;1248;48.694;10.160;2024-02-16T09:14:49;13.07;;;10.20;;
2474;SDS011;1248;48.694;10.160;2024-02-16T09:17:16;14.63;;;9.33;;
2474;SDS011;1248;48.694;10.160;2024-02-16T09:19:45;13.67;;;10.10;;
2474;SDS011;1248;48.694;10.160;2024-02-16T09:22:12;18.00;;;11.33;;
2474;SDS011;1248;48.694;10.160;2024-02-16T09:24:39;16.80;;;12.90;;
2474;SDS011;1248;48.694;10.160;2024-02-16T09:27:06;17.47;;;12.37;;
2474;SDS011;1248;48.694;10.160;2024-02-16T09:29:35;21.07;;;11.60;;
2474;SDS011;1248;48.694;10.160;2024-02-16T09:32:04;13.90;;;12.10;;
2474;SDS011;1248;48.694;10.160;2024-02-16T09:34:32;18.00;;;12.07;;
2474;SDS011;1248;48.694;10.160;2024-02-16T09:37:00;16.77;;;11.27;;
2474;SDS011;1248;48.694;10.160;2024-02-16T09:39:27;17.00;;;11.87;;
2474;SDS011;1248;48.694;10.160;2024-02-16T09:41:54;16.47;;;11.97;;
2474;SDS011;1248;48.694;10.160;2024-02-16T09:44:21;17.00;;;12.33;;
2474;SDS011;1248;48.694;10.160;2024-02-16T09:46:48;20.90;;;11.13;;
2474;SDS011;1248;48.694;10.160;2024-02-16T09:49:17;15.60;;;11.10;;
2474;SDS011;1248;48.694;10.160;2024-02-16T09:51:45;14.67;;;11.90;;
2474;SDS011;1248;48.694;10.160;2024-02-16T09:54:12;15.17;;;10.40;;
2474;SDS011;1248;48.694;10.160;2024-02-16T09:56:39;15.93;;;11.83;;
2474;SDS011;1248;48.694;10.160;2024-02-16T09:59:06;20.20;;;12.80;;
2474;SDS011;1248;48.694;10.160;2024-02-16T10:01:33;14.33;;;11.47;;
2474;SDS011;1248;48.694;10.160;2024-02-16T10:04:05;20.10;;;12.87;;
2474;SDS011;1248;48.694;10.160;2024-02-16T10:06:39;17.37;;;12.30;;
2474;SDS011;1248;48.694;10.160;2024-02-16T10:09:21;13.27;;;11.40;;
2474;SDS011;1248;48.694;10.160;2024-02-16T10:11:49;15.33;;;11.60;;
2474;SDS011;1248;48.694;10.160;2024-02-16T10:14:16;11.93;;;10.60;;
2474;SDS011;1248;48.694;10.160;2024-02-16T10:16:44;13.37;;;10.67;;
2474;SDS011;1248;48.694;10.160;2024-02-16T10:19:12;15.17;;;11.00;;
2474;SDS011;1248;48.694;10.160;2024-02-16T10:21:41;19.70;;;11.23;;
2474;SDS011;1248;48.694;10.160;2024-02-16T10:24:09;14.70;;;11.77;;
2474;SDS011;1248;48.694;10.160;2024-02-16T10:26:39;14.83;;;11.17;;
2474;SDS011;1248;48.694;10.160;2024-02-16T10:29:07;14.00;;;11.43;;
2474;SDS011;1248;48.694;10.160;2024-02-16T10:31:35;20.07;;;11.80;;
2474;SDS011;1248;48.694;10.160;2024-02-16T10:34:03;20.37;;;11.90;;
2474;SDS011;1248;48.694;10.160;2024-02-16T10:36:32;12.83;;;9.73;;
2474;SDS011;1248;48.694;10.160;2024-02-16T10:39:01;15.53;;;10.00;;
2474;SDS011;1248;48.694;10.160;2024-02-16T10:41:32;15.10;;;9.77;;
2474;SDS011;1248;48.694;10.160;2024-02-16T10:44:00;16.27;;;11.13;;
2474;SDS011;1248;48.694;10.160;2024-02-16T10:46:28;13.83;;;9.23;;
2474;SDS011;1248;48.694;10.160;2024-02-16T10:48:55;12.10;;;8.47;;
2474;SDS011;1248;48.694;10.160;2024-02-16T10:51:24;10.67;;;8.30;;
2474;SDS011;1248;48.694;10.160;2024-02-16T10:53:52;12.80;;;8.50;;
2474;SDS011;1248;48.694;10.160;2024-02-16T10:56:28;11.70;;;8.77;;
2474;SDS011;1248;48.694;10.160;2024-02-16T10:59:00;13.13;;;7.70;;
2474;SDS011;1248;48.694;10.160;2024-02-16T11:01:36;8.90;;;7.50;;
2474;SDS011;1248;48.694;10.160;2024-02-16T11:04:04;14.80;;;9.23;;
2474;SDS011;1248;48.694;10.160;2024-02-16T11:06:44;12.70;;;8.77;;
2474;SDS011;1248;48.694;10.160;2024-02-16T11:09:22;12.60;;;8.67;;
2474;SDS011;1248;48.694;10.160;2024-02-16T11:11:54;12.90;;;7.40;;
2474;SDS011;1248;48.694;10.160;2024-02-16T11:14:22;9.73;;;7.30;;
2474;SDS011;1248;48.694;10.160;2024-02-16T11:16:53;11.07;;;7.57;;
2474;SDS011;1248;48.694;10.160;2024-02-16T11:19:21;11.30;;;7.80;;
2474;SDS011;1248;48.694;10.160;2024-02-16T11:21:55;11.67;;;6.47;;
2474;SDS011;1248;48.694;10.160;2024-02-16T11:24:30;11.53;;;6.37;;
2474;SDS011;1248;48.694;10.160;2024-02-16T11:27:01;16.73;;;5.83;;
2474;SDS011;1248;48.694;10.160;2024-02-16T11:29:31;7.20;;;6.30;;
2474;SDS011;1248;48.694;10.160;2024-02-16T11:32:00;18.47;;;6.33;;
2474;SDS011;1248;48.694;10.160;2024-02-16T11:34:28;10.47;;;6.00;;
2474;SDS011;1248;48.694;10.160;2024-02-16T11:36:55;8.67;;;6.13;;
2474;SDS011;1248;48.694;10.160;2024-02-16T11:39:23;9.80;;;5.10;;
2474;SDS011;1248;48.694;10.160;2024-02-16T11:42:02;6.07;;;5.13;;
2474;SDS011;1248;48.694;10.160;2024-02-16T11:44:30;6.67;;;4.60;;
2474;SDS011;1248;48.694;10.160;2024-02-16T11:46:58;10.23;;;5.67;;
2474;SDS011;1248;48.694;10.160;2024-02-16T11:49:26;5.93;;;4.53;;
2474;SDS011;1248;48.694;10.160;2024-02-16T11:51:53;6.90;;;4.30;;
2474;SDS011;1248;48.694;10.160;2024-02-16T11:54:20;5.33;;;3.43;;
2474;SDS011;1248;48.694;10.160;2024-02-16T11:56:48;13.33;;;4.63;;
2474;SDS011;1248;48.694;10.160;2024-02-16T11:59:18;5.47;;;4.10;;
2474;SDS011;1248;48.694;10.160;2024-02-16T12:01:49;7.40;;;3.00;;
2474;SDS011;1248;48.694;10.160;2024-02-16T12:04:20;3.87;;;3.03;;
2474;SDS011;1248;48.694;10.160;2024-02-16T12:06:50;4.70;;;3.33;;
2474;SDS011;1248;48.694;10.160;2024-02-16T12:09:18;4.40;;;2.93;;
2474;SDS011;1248;48.694;10.160;2024-02-16T12:11:45;3.90;;;2.97;;
2474;SDS011;1248;48.694;10.160;2024-02-16T12:14:14;9.90;;;4.00;;
2474;SDS011;1248;48.694;10.160;2024-02-16T12:16:46;9.00;;;3.63;;
2474;SDS011;1248;48.694;10.160;2024-02-16T12:19:13;5.60;;;3.53;;
2474;SDS011;1248;48.694;10.160;2024-02-16T12:21:40;4.13;;;2.10;;
2474;SDS011;1248;48.694;10.160;2024-02-16T12:24:08;3.80;;;1.90;;
2474;SDS011;1248;48.694;10.160;2024-02-16T12:26:36;2.00;;;1.30;;
2474;SDS011;1248;48.694;10.160;2024-02-16T12:29:03;2.40;;;1.50;;
2474;SDS011;1248;48.694;10.160;2024-02-16T12:31:30;1.77;;;1.20;;
2474;SDS011;1248;48.694;10.160;2024-02-16T12:33:59;7.17;;;1.80;;
2474;SDS011;1248;48.694;10.160;2024-02-16T12:36:26;3.37;;;1.63;;
2474;SDS011;1248;48.694;10.160;2024-02-16T12:38:53;2.03;;;1.83;;
2474;SDS011;1248;48.694;10.160;2024-02-16T12:41:20;1.60;;;1.20;;
2474;SDS011;1248;48.694;10.160;2024-02-16T12:43:48;1.83;;;1.40;;
2474;SDS011;1248;48.694;10.160;2024-02-16T12:46:15;7.00;;;2.00;;
2474;SDS011;1248;48.694;10.160;2024-02-16T12:48:42;2.53;;;1.40;;
2474;SDS011;1248;48.694;10.160;2024-02-16T12:51:11;4.43;;;2.77;;
2474;SDS011;1248;48.694;10.160;2024-02-16T12:53:38;2.60;;;1.90;;
2474;SDS011;1248;48.694;10.160;2024-02-16T12:56:07;2.60;;;1.90;;
2474;SDS011;1248;48.694;10.160;2024-02-16T12:58:35;9.23;;;2.00;;
2474;SDS011;1248;48.694;10.160;2024-02-16T13:01:02;5.07;;;1.87;;
2474;SDS011;1248;48.694;10.160;2024-02-16T13:03:31;2.60;;;1.87;;
2474;SDS011;1248;48.694;10.160;2024-02-16T13:06:00;3.53;;;1.90;;
2474;SDS011;1248;48.694;10.160;2024-02-16T13:08:28;3.00;;;1.70;;
2474;SDS011;1248;48.694;10.160;2024-02-16T13:10:56;5.00;;;1.83;;
2474;SDS011;1248;48.694;10.160;2024-02-16T13:13:23;2.60;;;2.20;;
2474;SDS011;1248;48.694;10.160;2024-02-16T13:15:50;2.80;;;1.87;;
2474;SDS011;1248;48.694;10.160;2024-02-16T13:18:18;3.40;;;2.27;;
2474;SDS011;1248;48.694;10.160;2024-02-16T13:20:45;4.17;;;1.70;;
2474;SDS011;1248;48.694;10.160;2024-02-16T13:23:13;4.40;;;1.90;;
2474;SDS011;1248;48.694;10.160;2024-02-16T13:25:41;3.47;;;2.17;;
2474;SDS011;1248;48.694;10.160;2024-02-16T13:28:08;3.40;;;1.90;;
2474;SDS011;1248;48.694;10.160;2024-02-16T13:30:35;3.60;;;1.97;;
2474;SDS011;1248;48.694;10.160;2024-02-16T13:33:03;5.47;;;2.07;;
2474;SDS011;1248;48.694;10.160;2024-02-16T13:35:30;2.70;;;2.07;;
2474;SDS011;1248;48.694;10.160;2024-02-16T13:37:57;2.50;;;1.90;;
2474;SDS011;1248;48.694;10.160;2024-02-16T13:40:24;4.60;;;2.10;;
2474;SDS011;1248;48.694;10.160;2024-02-16T13:42:53;3.30;;;2.30;;
2474;SDS011;1248;48.694;10.160;2024-02-16T13:45:21;6.73;;;2.40;;
2474;SDS011;1248;48.694;10.160;2024-02-16T13:47:51;4.77;;;2.53;;
2474;SDS011;1248;48.694;10.160;2024-02-16T13:50:18;4.10;;;2.07;;
2474;SDS011;1248;48.694;10.160;2024-02-16T13:52:45;5.30;;;3.30;;
2474;SDS011;1248;48.694;10.160;2024-02-16T13:55:12;6.00;;;2.00;;
2474;SDS011;1248;48.694;10.160;2024-02-16T13:57:39;6.00;;;3.33;;
2474;SDS011;1248;48.694;10.160;2024-02-16T14:00:08;8.17;;;2.67;;
2474;SDS011;1248;48.694;10.160;2024-02-16T14:02:36;5.93;;;2.07;;
2474;SDS011;1248;48.694;10.160;2024-02-16T14:05:03;4.10;;;2.07;;
2474;SDS011;1248;48.694;10.160;2024-02-16T14:07:30;6.33;;;2.20;;
2474;SDS011;1248;48.694;10.160;2024-02-16T14:09:58;18.27;;;3.17;;
2474;SDS011;1248;48.694;10.160;2024-02-16T14:12:25;4.53;;;1.80;;
2474;SDS011;1248;48.694;10.160;2024-02-16T14:14:52;5.03;;;2.70;;
2474;SDS011;1248;48.694;10.160;2024-02-16T14:17:21;3.53;;;2.47;;
2474;SDS011;1248;48.694;10.160;2024-02-16T14:19:48;6.87;;;2.07;;
2474;SDS011;1248;48.694;10.160;2024-02-16T14:22:15;5.83;;;2.17;;
2474;SDS011;1248;48.694;10.160;2024-02-16T14:24:42;8.33;;;2.20;;
2474;SDS011;1248;48.694;10.160;2024-02-16T14:27:09;2.87;;;1.70;;
2474;SDS011;1248;48.694;10.160;2024-02-16T14:29:36;4.10;;;2.30;;
2474;SDS011;1248;48.694;10.160;2024-02-16T14:32:03;5.53;;;2.53;;
2474;SDS011;1248;48.694;10.160;2024-02-16T14:34:32;7.10;;;2.30;;
2474;SDS011;1248;48.694;10.160;2024-02-16T14:36:59;7.57;;;3.00;;
2474;SDS011;1248;48.694;10.160;2024-02-16T14:39:26;8.63;;;2.70;;
2474;SDS011;1248;48.694;10.160;2024-02-16T14:41:53;35.57;;;3.10;;
2474;SDS011;1248;48.694;10.160;2024-02-16T14:44:20;5.53;;;2.40;;
2474;SDS011;1248;48.694;10.160;2024-02-16T14:46:47;5.60;;;1.93;;
2474;SDS011;1248;48.694;10.160;2024-02-16T14:49:14;3.80;;;2.23;;
2474;SDS011;1248;48.694;10.160;2024-02-16T14:51:47;2.60;;;2.37;;
2474;SDS011;1248;48.694;10.160;2024-02-16T14:54:14;3.20;;;2.10;;
2474;SDS011;1248;48.694;10.160;2024-02-16T14:56:41;3.57;;;2.60;;